sensor_id;sensor_type;location;lat;lon;timestamp;pressure;altitude;pressure_sealevel;temperature;humidity
45872;BME280;32333;55.844;-3.210;2023-04-05T00:01:50;99699.46;;;4.12;100.00
45872;BME280;32333;55.844;-3.210;2023-04-05T00:04:17;99699.73;;;3.51;100.00
45872;BME280;32333;55.844;-3.210;2023-04-05T00:06:47;99691.19;;;4.05;100.00
45872;BME280;32333;55.844;-3.210;2023-04-05T00:09:17;99687.52;;;4.56;100.00
45872;BME280;32333;55.844;-3.210;2023-04-05T00:11:46;99683.44;;;4.17;100.00
45872;BME280;32333;55.844;-3.210;2023-04-05T00:14:37;99684.70;;;3.71;100.00
45872;BME280;32333;55.844;-3.210;2023-04-05T00:17:05;99674.81;;;4.42;100.00
45872;BME280;32333;55.844;-3.210;2023-04-05T00:19:32;99679.61;;;4.15;100.00
45872;BME280;32333;55.844;-3.210;2023-04-05T00:22:01;99683.01;;;4.09;100.00
45872;BME280;32333;55.844;-3.210;2023-04-05T00:24:28;99683.66;;;4.18;100.00
45872;BME280;32333;55.844;-3.210;2023-04-05T00:26:56;99674.58;;;4.06;100.00
45872;BME280;32333;55.844;-3.210;2023-04-05T00:29:24;99679.21;;;4.60;100.00
45872;BME280;32333;55.844;-3.210;2023-04-05T00:31:51;99678.13;;;4.81;100.00
45872;BME280;32333;55.844;-3.210;2023-04-05T00:34:18;99674.36;;;4.85;100.00
45872;BME280;32333;55.844;-3.210;2023-04-05T00:36:46;99680.43;;;4.40;100.00
45872;BME280;32333;55.844;-3.210;2023-04-05T00:39:13;99681.85;;;4.65;100.00
45872;BME280;32333;55.844;-3.210;2023-04-05T00:41:41;99681.79;;;4.69;100.00
45872;BME280;32333;55.844;-3.210;2023-04-05T00:44:36;99689.89;;;4.89;100.00
45872;BME280;32333;55.844;-3.210;2023-04-05T00:47:04;99690.85;;;4.49;100.00
45872;BME280;32333;55.844;-3.210;2023-04-05T00:49:33;99694.98;;;3.59;100.00
45872;BME280;32333;55.844;-3.210;2023-04-05T00:52:01;99682.37;;;4.65;100.00
45872;BME280;32333;55.844;-3.210;2023-04-05T00:54:29;99686.59;;;4.47;100.00
45872;BME280;32333;55.844;-3.210;2023-04-05T00:56:57;99684.50;;;5.33;100.00
45872;BME280;32333;55.844;-3.210;2023-04-05T00:59:26;99679.21;;;5.54;100.00
45872;BME280;32333;55.844;-3.210;2023-04-05T01:02:00;99675.26;;;4.77;100.00
45872;BME280;32333;55.844;-3.210;2023-04-05T01:04:32;99671.70;;;3.98;100.00
45872;BME280;32333;55.844;-3.210;2023-04-05T01:07:06;99670.39;;;5.27;100.00
45872;BME280;32333;55.844;-3.210;2023-04-05T01:09:43;99667.57;;;4.59;100.00
45872;BME280;32333;55.844;-3.210;2023-04-05T01:14:45;99669.14;;;5.45;100.00
45872;BME280;32333;55.844;-3.210;2023-04-05T01:17:13;99665.93;;;5.38;100.00
45872;BME280;32333;55.844;-3.210;2023-04-05T01:19:40;99660.90;;;4.93;100.00
45872;BME280;32333;55.844;-3.210;2023-04-05T01:22:28;99656.78;;;4.39;100.00
45872;BME280;32333;55.844;-3.210;2023-04-05T01:25:13;99654.96;;;4.84;100.00
45872;BME280;32333;55.844;-3.210;2023-04-05T01:28:31;99641.80;;;5.57;100.00
45872;BME280;32333;55.844;-3.210;2023-04-05T01:31:07;99637.24;;;5.34;100.00
45872;BME280;32333;55.844;-3.210;2023-04-05T01:33:43;99635.58;;;3.98;100.00
45872;BME280;32333;55.844;-3.210;2023-04-05T01:36:18;99625.75;;;5.03;100.00
45872;BME280;32333;55.844;-3.210;2023-04-05T01:38:50;99617.07;;;4.81;100.00
45872;BME280;32333;55.844;-3.210;2023-04-05T01:41:20;99614.48;;;5.30;100.00
45872;BME280;32333;55.844;-3.210;2023-04-05T01:44:35;99630.01;;;5.20;100.00
45872;BME280;32333;55.844;-3.210;2023-04-05T01:47:02;99617.35;;;4.90;100.00
45872;BME280;32333;55.844;-3.210;2023-04-05T01:49:30;99614.68;;;5.40;100.00
45872;BME280;32333;55.844;-3.210;2023-04-05T01:51:57;99612.11;;;5.48;100.00
45872;BME280;32333;55.844;-3.210;2023-04-05T01:54:26;99599.17;;;5.92;100.00
45872;BME280;32333;55.844;-3.210;2023-04-05T01:56:53;99602.69;;;5.21;100.00
45872;BME280;32333;55.844;-3.210;2023-04-05T01:59:20;99595.09;;;5.01;100.00
45872;BME280;32333;55.844;-3.210;2023-04-05T02:01:47;99587.93;;;4.57;100.00
45872;BME280;32333;55.844;-3.210;2023-04-05T02:04:16;99583.61;;;4.54;100.00
45872;BME280;32333;55.844;-3.210;2023-04-05T02:06:43;99580.22;;;5.11;100.00
45872;BME280;32333;55.844;-3.210;2023-04-05T02:09:10;99572.26;;;4.30;100.00
45872;BME280;32333;55.844;-3.210;2023-04-05T02:11:38;99574.97;;;4.62;100.00
45872;BME280;32333;55.844;-3.210;2023-04-05T02:14:36;99583.40;;;4.40;100.00
45872;BME280;32333;55.844;-3.210;2023-04-05T02:17:03;99579.00;;;4.43;100.00
45872;BME280;32333;55.844;-3.210;2023-04-05T02:19:31;99576.43;;;4.38;100.00
45872;BME280;32333;55.844;-3.210;2023-04-05T02:21:58;99571.43;;;4.76;100.00
45872;BME280;32333;55.844;-3.210;2023-04-05T02:24:26;99573.66;;;4.84;100.00
45872;BME280;32333;55.844;-3.210;2023-04-05T02:26:54;99578.11;;;5.10;100.00
45872;BME280;32333;55.844;-3.210;2023-04-05T02:29:21;99569.82;;;5.26;100.00
45872;BME280;32333;55.844;-3.210;2023-04-05T02:31:50;99568.78;;;4.72;100.00
45872;BME280;32333;55.844;-3.210;2023-04-05T02:34:17;99564.95;;;5.21;100.00
45872;BME280;32333;55.844;-3.210;2023-04-05T02:36:45;99561.72;;;4.94;100.00
45872;BME280;32333;55.844;-3.210;2023-04-05T02:39:12;99562.30;;;4.90;100.00
45872;BME280;32333;55.844;-3.210;2023-04-05T02:41:40;99561.59;;;5.43;100.00
45872;BME280;32333;55.844;-3.210;2023-04-05T02:44:35;99562.89;;;4.96;100.00
45872;BME280;32333;55.844;-3.210;2023-04-05T02:47:03;99557.25;;;5.00;100.00
45872;BME280;32333;55.844;-3.210;2023-04-05T02:49:31;99560.94;;;4.64;100.00
45872;BME280;32333;55.844;-3.210;2023-04-05T02:51:58;99558.47;;;4.76;100.00
45872;BME280;32333;55.844;-3.210;2023-04-05T02:54:26;99553.96;;;5.02;100.00
45872;BME280;32333;55.844;-3.210;2023-04-05T02:56:54;99547.59;;;5.24;100.00
45872;BME280;32333;55.844;-3.210;2023-04-05T02:59:21;99543.29;;;4.62;100.00
45872;BME280;32333;55.844;-3.210;2023-04-05T03:01:48;99543.60;;;4.86;100.00
45872;BME280;32333;55.844;-3.210;2023-04-05T03:04:16;99536.98;;;4.52;100.00
45872;BME280;32333;55.844;-3.210;2023-04-05T03:06:44;99532.62;;;5.07;100.00
45872;BME280;32333;55.844;-3.210;2023-04-05T03:09:11;99525.00;;;4.70;100.00
45872;BME280;32333;55.844;-3.210;2023-04-05T03:11:39;99527.06;;;4.56;100.00
45872;BME280;32333;55.844;-3.210;2023-04-05T03:14:36;99525.50;;;4.66;100.00
45872;BME280;32333;55.844;-3.210;2023-04-05T03:17:04;99519.69;;;4.18;100.00
45872;BME280;32333;55.844;-3.210;2023-04-05T03:19:32;99522.97;;;4.78;100.00
45872;BME280;32333;55.844;-3.210;2023-04-05T03:22:00;99518.39;;;4.87;100.00
45872;BME280;32333;55.844;-3.210;2023-04-05T03:24:27;99506.26;;;5.04;100.00
45872;BME280;32333;55.844;-3.210;2023-04-05T03:26:54;99508.81;;;4.77;100.00
45872;BME280;32333;55.844;-3.210;2023-04-05T03:29:22;99499.40;;;4.82;100.00
45872;BME280;32333;55.844;-3.210;2023-04-05T03:31:50;99495.72;;;4.77;100.00
45872;BME280;32333;55.844;-3.210;2023-04-05T03:34:17;99492.03;;;4.70;100.00
45872;BME280;32333;55.844;-3.210;2023-04-05T03:36:44;99487.79;;;4.73;100.00
45872;BME280;32333;55.844;-3.210;2023-04-05T03:39:13;99488.12;;;4.97;100.00
45872;BME280;32333;55.844;-3.210;2023-04-05T03:41:41;99485.05;;;4.77;100.00
45872;BME280;32333;55.844;-3.210;2023-04-05T03:44:36;99479.41;;;4.81;100.00
45872;BME280;32333;55.844;-3.210;2023-04-05T03:47:03;99478.83;;;5.00;100.00
45872;BME280;32333;55.844;-3.210;2023-04-05T03:49:30;99472.14;;;4.57;100.00
45872;BME280;32333;55.844;-3.210;2023-04-05T03:51:58;99464.58;;;4.59;100.00
45872;BME280;32333;55.844;-3.210;2023-04-05T03:54:25;99470.78;;;4.48;100.00
45872;BME280;32333;55.844;-3.210;2023-04-05T03:56:53;99464.66;;;5.03;100.00
45872;BME280;32333;55.844;-3.210;2023-04-05T03:59:20;99460.72;;;4.69;100.00
45872;BME280;32333;55.844;-3.210;2023-04-05T04:01:49;99462.30;;;4.24;100.00
45872;BME280;32333;55.844;-3.210;2023-04-05T04:04:16;99457.99;;;5.04;100.00
45872;BME280;32333;55.844;-3.210;2023-04-05T04:06:43;99444.61;;;4.63;100.00
45872;BME280;32333;55.844;-3.210;2023-04-05T04:09:11;99452.14;;;4.59;100.00
45872;BME280;32333;55.844;-3.210;2023-04-05T04:11:39;99458.07;;;4.58;100.00
45872;BME280;32333;55.844;-3.210;2023-04-05T04:14:36;99452.85;;;4.87;100.00
45872;BME280;32333;55.844;-3.210;2023-04-05T04:17:03;99449.07;;;4.38;100.00
45872;BME280;32333;55.844;-3.210;2023-04-05T04:19:31;99448.05;;;4.39;100.00
45872;BME280;32333;55.844;-3.210;2023-04-05T04:21:59;99446.44;;;4.49;100.00
45872;BME280;32333;55.844;-3.210;2023-04-05T04:24:26;99445.51;;;5.15;100.00
45872;BME280;32333;55.844;-3.210;2023-04-05T04:26:54;99437.97;;;4.85;100.00
45872;BME280;32333;55.844;-3.210;2023-04-05T04:29:21;99438.09;;;4.87;100.00
45872;BME280;32333;55.844;-3.210;2023-04-05T04:31:49;99433.82;;;4.72;100.00
45872;BME280;32333;55.844;-3.210;2023-04-05T04:34:16;99436.17;;;4.79;100.00
45872;BME280;32333;55.844;-3.210;2023-04-05T04:36:44;99436.96;;;4.46;100.00
45872;BME280;32333;55.844;-3.210;2023-04-05T04:39:12;99438.75;;;4.86;100.00
45872;BME280;32333;55.844;-3.210;2023-04-05T04:41:40;99430.82;;;4.53;100.00
45872;BME280;32333;55.844;-3.210;2023-04-05T04:44:36;99433.11;;;4.74;100.00
45872;BME280;32333;55.844;-3.210;2023-04-05T04:47:03;99434.78;;;5.08;100.00
45872;BME280;32333;55.844;-3.210;2023-04-05T04:49:31;99426.72;;;5.16;100.00
45872;BME280;32333;55.844;-3.210;2023-04-05T04:51:59;99422.06;;;5.26;100.00
45872;BME280;32333;55.844;-3.210;2023-04-05T04:54:27;99422.44;;;5.24;100.00
45872;BME280;32333;55.844;-3.210;2023-04-05T04:56:54;99423.62;;;4.59;100.00
45872;BME280;32333;55.844;-3.210;2023-04-05T04:59:21;99421.40;;;5.05;100.00
45872;BME280;32333;55.844;-3.210;2023-04-05T05:01:49;99417.12;;;4.81;100.00
45872;BME280;32333;55.844;-3.210;2023-04-05T05:04:16;99412.30;;;4.66;100.00
45872;BME280;32333;55.844;-3.210;2023-04-05T05:06:44;99416.40;;;4.83;100.00
45872;BME280;32333;55.844;-3.210;2023-04-05T05:09:12;99415.91;;;4.57;100.00
45872;BME280;32333;55.844;-3.210;2023-04-05T05:11:40;99418.78;;;4.67;100.00
45872;BME280;32333;55.844;-3.210;2023-04-05T05:14:36;99411.96;;;4.91;100.00
45872;BME280;32333;55.844;-3.210;2023-04-05T05:17:03;99413.29;;;4.74;100.00
45872;BME280;32333;55.844;-3.210;2023-04-05T05:19:31;99411.29;;;5.03;100.00
45872;BME280;32333;55.844;-3.210;2023-04-05T05:21:59;99412.74;;;4.91;100.00
45872;BME280;32333;55.844;-3.210;2023-04-05T05:24:27;99408.90;;;5.34;100.00
45872;BME280;32333;55.844;-3.210;2023-04-05T05:26:54;99416.55;;;5.04;100.00
45872;BME280;32333;55.844;-3.210;2023-04-05T05:29:21;99412.43;;;4.75;100.00
45872;BME280;32333;55.844;-3.210;2023-04-05T05:31:49;99410.66;;;5.28;100.00
45872;BME280;32333;55.844;-3.210;2023-04-05T05:34:16;99407.83;;;5.40;100.00
45872;BME280;32333;55.844;-3.210;2023-04-05T05:36:45;99409.00;;;4.80;100.00
45872;BME280;32333;55.844;-3.210;2023-04-05T05:39:13;99400.47;;;5.38;100.00
45872;BME280;32333;55.844;-3.210;2023-04-05T05:41:40;99401.52;;;5.54;100.00
45872;BME280;32333;55.844;-3.210;2023-04-05T05:44:36;99397.50;;;5.45;100.00
45872;BME280;32333;55.844;-3.210;2023-04-05T05:47:04;99402.62;;;4.98;100.00
45872;BME280;32333;55.844;-3.210;2023-04-05T05:49:31;99400.69;;;4.80;100.00
45872;BME280;32333;55.844;-3.210;2023-04-05T05:52:00;99394.30;;;5.04;100.00
45872;BME280;32333;55.844;-3.210;2023-04-05T05:54:27;99389.31;;;5.18;100.00
45872;BME280;32333;55.844;-3.210;2023-04-05T05:56:55;99383.87;;;4.89;100.00
45872;BME280;32333;55.844;-3.210;2023-04-05T05:59:23;99389.84;;;5.02;100.00
45872;BME280;32333;55.844;-3.210;2023-04-05T06:01:51;99384.92;;;4.84;100.00
45872;BME280;32333;55.844;-3.210;2023-04-05T06:04:19;99388.07;;;5.23;100.00
45872;BME280;32333;55.844;-3.210;2023-04-05T06:06:47;99393.51;;;4.87;100.00
45872;BME280;32333;55.844;-3.210;2023-04-05T06:09:15;99393.54;;;5.35;100.00
45872;BME280;32333;55.844;-3.210;2023-04-05T06:11:43;99391.15;;;5.23;100.00
45872;BME280;32333;55.844;-3.210;2023-04-05T06:14:36;99390.18;;;5.29;100.00
45872;BME280;32333;55.844;-3.210;2023-04-05T06:17:03;99401.52;;;5.18;100.00
45872;BME280;32333;55.844;-3.210;2023-04-05T06:19:30;99397.72;;;5.45;100.00
45872;BME280;32333;55.844;-3.210;2023-04-05T06:21:59;99389.43;;;5.18;100.00
45872;BME280;32333;55.844;-3.210;2023-04-05T06:24:26;99390.22;;;5.15;100.00
45872;BME280;32333;55.844;-3.210;2023-04-05T06:26:54;99390.50;;;5.08;100.00
45872;BME280;32333;55.844;-3.210;2023-04-05T06:29:21;99394.37;;;5.07;100.00
45872;BME280;32333;55.844;-3.210;2023-04-05T06:31:49;99398.01;;;5.40;100.00
45872;BME280;32333;55.844;-3.210;2023-04-05T06:34:16;99390.55;;;5.30;100.00
45872;BME280;32333;55.844;-3.210;2023-04-05T06:36:43;99387.82;;;5.48;100.00
45872;BME280;32333;55.844;-3.210;2023-04-05T06:39:12;99386.92;;;5.64;100.00
45872;BME280;32333;55.844;-3.210;2023-04-05T06:41:39;99380.87;;;5.25;100.00
45872;BME280;32333;55.844;-3.210;2023-04-05T06:44:35;99382.54;;;5.40;100.00
45872;BME280;32333;55.844;-3.210;2023-04-05T06:47:03;99377.46;;;5.58;100.00
45872;BME280;32333;55.844;-3.210;2023-04-05T06:49:30;99374.18;;;5.75;100.00
45872;BME280;32333;55.844;-3.210;2023-04-05T06:51:59;99371.27;;;5.45;100.00
45872;BME280;32333;55.844;-3.210;2023-04-05T06:54:26;99364.77;;;5.50;100.00
45872;BME280;32333;55.844;-3.210;2023-04-05T06:56:53;99370.74;;;5.72;100.00
45872;BME280;32333;55.844;-3.210;2023-04-05T06:59:21;99365.30;;;5.59;100.00
45872;BME280;32333;55.844;-3.210;2023-04-05T07:01:48;99366.66;;;5.58;100.00
45872;BME280;32333;55.844;-3.210;2023-04-05T07:04:16;99372.47;;;5.19;100.00
45872;BME280;32333;55.844;-3.210;2023-04-05T07:06:43;99375.30;;;5.70;100.00
45872;BME280;32333;55.844;-3.210;2023-04-05T07:09:13;99370.21;;;5.97;100.00
45872;BME280;32333;55.844;-3.210;2023-04-05T07:11:40;99371.71;;;6.29;100.00
45872;BME280;32333;55.844;-3.210;2023-04-05T07:14:36;99377.39;;;5.87;100.00
45872;BME280;32333;55.844;-3.210;2023-04-05T07:17:05;99376.54;;;6.49;100.00
45872;BME280;32333;55.844;-3.210;2023-04-05T07:19:34;99370.68;;;6.24;100.00
45872;BME280;32333;55.844;-3.210;2023-04-05T07:22:01;99379.36;;;6.06;100.00
45872;BME280;32333;55.844;-3.210;2023-04-05T07:24:28;99367.53;;;6.20;100.00
45872;BME280;32333;55.844;-3.210;2023-04-05T07:26:56;99360.45;;;6.23;100.00
45872;BME280;32333;55.844;-3.210;2023-04-05T07:29:23;99356.09;;;6.51;100.00
45872;BME280;32333;55.844;-3.210;2023-04-05T07:31:50;99356.45;;;6.46;100.00
45872;BME280;32333;55.844;-3.210;2023-04-05T07:34:18;99363.42;;;6.44;100.00
45872;BME280;32333;55.844;-3.210;2023-04-05T07:36:46;99359.50;;;6.48;100.00
45872;BME280;32333;55.844;-3.210;2023-04-05T07:39:13;99363.70;;;6.89;100.00
45872;BME280;32333;55.844;-3.210;2023-04-05T07:41:41;99366.01;;;6.64;100.00
45872;BME280;32333;55.844;-3.210;2023-04-05T07:44:35;99367.18;;;6.38;100.00
45872;BME280;32333;55.844;-3.210;2023-04-05T07:47:03;99362.71;;;7.18;100.00
45872;BME280;32333;55.844;-3.210;2023-04-05T07:49:30;99363.23;;;6.91;100.00
45872;BME280;32333;55.844;-3.210;2023-04-05T07:51:59;99365.34;;;6.88;100.00
45872;BME280;32333;55.844;-3.210;2023-04-05T07:54:26;99364.06;;;6.87;100.00
45872;BME280;32333;55.844;-3.210;2023-04-05T07:56:53;99360.73;;;6.86;100.00
45872;BME280;32333;55.844;-3.210;2023-04-05T07:59:20;99358.76;;;7.15;100.00
45872;BME280;32333;55.844;-3.210;2023-04-05T08:01:48;99360.23;;;7.08;100.00
45872;BME280;32333;55.844;-3.210;2023-04-05T08:04:17;99360.15;;;7.20;100.00
45872;BME280;32333;55.844;-3.210;2023-04-05T08:06:45;99359.47;;;6.94;100.00
45872;BME280;32333;55.844;-3.210;2023-04-05T08:09:13;99355.26;;;6.62;100.00
45872;BME280;32333;55.844;-3.210;2023-04-05T08:11:40;99352.12;;;6.94;100.00
45872;BME280;32333;55.844;-3.210;2023-04-05T08:14:35;99352.67;;;6.99;100.00
45872;BME280;32333;55.844;-3.210;2023-04-05T08:17:02;99347.49;;;7.42;100.00
45872;BME280;32333;55.844;-3.210;2023-04-05T08:19:30;99351.02;;;7.52;100.00
45872;BME280;32333;55.844;-3.210;2023-04-05T08:21:59;99352.52;;;7.22;100.00
45872;BME280;32333;55.844;-3.210;2023-04-05T08:24:26;99351.72;;;7.20;100.00
45872;BME280;32333;55.844;-3.210;2023-04-05T08:26:54;99355.54;;;7.60;100.00
45872;BME280;32333;55.844;-3.210;2023-04-05T08:29:22;99358.73;;;7.40;100.00
45872;BME280;32333;55.844;-3.210;2023-04-05T08:31:49;99361.99;;;7.53;100.00
45872;BME280;32333;55.844;-3.210;2023-04-05T08:34:17;99362.70;;;7.32;100.00
45872;BME280;32333;55.844;-3.210;2023-04-05T08:36:44;99359.51;;;7.34;100.00
45872;BME280;32333;55.844;-3.210;2023-04-05T08:39:11;99357.07;;;7.93;100.00
45872;BME280;32333;55.844;-3.210;2023-04-05T08:41:40;99356.46;;;7.29;100.00
45872;BME280;32333;55.844;-3.210;2023-04-05T08:44:36;99359.76;;;8.26;100.00
45872;BME280;32333;55.844;-3.210;2023-04-05T08:47:04;99357.03;;;7.67;100.00
45872;BME280;32333;55.844;-3.210;2023-04-05T08:49:32;99355.78;;;8.33;100.00
45872;BME280;32333;55.844;-3.210;2023-04-05T08:52:00;99355.48;;;8.03;100.00
45872;BME280;32333;55.844;-3.210;2023-04-05T08:54:27;99357.12;;;7.93;100.00
45872;BME280;32333;55.844;-3.210;2023-04-05T08:56:55;99359.41;;;7.64;100.00
45872;BME280;32333;55.844;-3.210;2023-04-05T08:59:24;99350.59;;;8.61;100.00
45872;BME280;32333;55.844;-3.210;2023-04-05T09:01:52;99358.76;;;7.92;100.00
45872;BME280;32333;55.844;-3.210;2023-04-05T09:04:23;99356.07;;;8.17;100.00
45872;BME280;32333;55.844;-3.210;2023-04-05T09:06:55;99354.80;;;7.82;100.00
45872;BME280;32333;55.844;-3.210;2023-04-05T09:09:24;99359.97;;;8.19;100.00
45872;BME280;32333;55.844;-3.210;2023-04-05T09:11:52;99359.83;;;8.33;100.00
45872;BME280;32333;55.844;-3.210;2023-04-05T09:14:37;99361.33;;;7.91;100.00
45872;BME280;32333;55.844;-3.210;2023-04-05T09:17:05;99360.03;;;8.13;100.00
45872;BME280;32333;55.844;-3.210;2023-04-05T09:19:34;99358.26;;;8.30;100.00
45872;BME280;32333;55.844;-3.210;2023-04-05T09:22:03;99351.64;;;8.57;100.00
45872;BME280;32333;55.844;-3.210;2023-04-05T09:24:31;99350.48;;;8.50;100.00
45872;BME280;32333;55.844;-3.210;2023-04-05T09:27:05;99347.97;;;8.87;100.00
45872;BME280;32333;55.844;-3.210;2023-04-05T09:29:33;99345.30;;;9.49;100.00
45872;BME280;32333;55.844;-3.210;2023-04-05T09:32:01;99342.89;;;8.71;100.00
45872;BME280;32333;55.844;-3.210;2023-04-05T09:34:29;99335.24;;;8.59;100.00
45872;BME280;32333;55.844;-3.210;2023-04-05T09:36:57;99346.97;;;9.31;100.00
45872;BME280;32333;55.844;-3.210;2023-04-05T09:39:28;99348.49;;;8.96;100.00
45872;BME280;32333;55.844;-3.210;2023-04-05T09:44:53;99354.84;;;8.54;100.00
45872;BME280;32333;55.844;-3.210;2023-04-05T09:47:22;99349.85;;;9.08;100.00
45872;BME280;32333;55.844;-3.210;2023-04-05T09:49:50;99350.63;;;7.99;100.00
45872;BME280;32333;55.844;-3.210;2023-04-05T09:52:21;99350.02;;;8.69;100.00
45872;BME280;32333;55.844;-3.210;2023-04-05T09:54:51;99345.07;;;8.45;100.00
45872;BME280;32333;55.844;-3.210;2023-04-05T09:57:18;99343.68;;;8.70;100.00
45872;BME280;32333;55.844;-3.210;2023-04-05T09:59:46;99344.52;;;8.87;100.00
45872;BME280;32333;55.844;-3.210;2023-04-05T10:02:14;99345.56;;;8.96;100.00
45872;BME280;32333;55.844;-3.210;2023-04-05T10:04:42;99341.46;;;8.74;100.00
45872;BME280;32333;55.844;-3.210;2023-04-05T10:07:11;99336.71;;;8.33;100.00
45872;BME280;32333;55.844;-3.210;2023-04-05T10:09:40;99336.88;;;8.65;100.00
45872;BME280;32333;55.844;-3.210;2023-04-05T10:14:37;99333.95;;;9.62;100.00
45872;BME280;32333;55.844;-3.210;2023-04-05T10:17:10;99340.10;;;9.46;100.00
45872;BME280;32333;55.844;-3.210;2023-04-05T10:19:49;99340.54;;;9.36;100.00
45872;BME280;32333;55.844;-3.210;2023-04-05T10:22:24;99336.71;;;9.54;100.00
45872;BME280;32333;55.844;-3.210;2023-04-05T10:25:02;99332.38;;;9.23;100.00
45872;BME280;32333;55.844;-3.210;2023-04-05T10:27:36;99334.18;;;9.60;100.00
45872;BME280;32333;55.844;-3.210;2023-04-05T10:30:07;99334.23;;;9.79;100.00
45872;BME280;32333;55.844;-3.210;2023-04-05T10:32:43;99327.40;;;10.31;100.00
45872;BME280;32333;55.844;-3.210;2023-04-05T10:35:16;99320.64;;;10.88;100.00
45872;BME280;32333;55.844;-3.210;2023-04-05T10:37:58;99314.05;;;11.17;100.00
45872;BME280;32333;55.844;-3.210;2023-04-05T10:40:31;99322.52;;;10.22;100.00
45872;BME280;32333;55.844;-3.210;2023-04-05T10:44:36;99326.75;;;10.67;100.00
45872;BME280;32333;55.844;-3.210;2023-04-05T10:47:04;99328.49;;;11.20;100.00
45872;BME280;32333;55.844;-3.210;2023-04-05T10:49:38;99330.63;;;10.00;100.00
45872;BME280;32333;55.844;-3.210;2023-04-05T10:52:06;99326.99;;;10.65;100.00
45872;BME280;32333;55.844;-3.210;2023-04-05T10:54:34;99331.19;;;11.36;100.00
45872;BME280;32333;55.844;-3.210;2023-04-05T10:57:04;99324.79;;;10.65;100.00
45872;BME280;32333;55.844;-3.210;2023-04-05T10:59:33;99329.07;;;9.77;100.00
45872;BME280;32333;55.844;-3.210;2023-04-05T11:02:03;99326.44;;;10.47;100.00
45872;BME280;32333;55.844;-3.210;2023-04-05T11:04:32;99327.15;;;10.53;100.00
45872;BME280;32333;55.844;-3.210;2023-04-05T11:07:16;99325.54;;;10.48;100.00
45872;BME280;32333;55.844;-3.210;2023-04-05T11:09:52;99322.29;;;10.66;100.00
45872;BME280;32333;55.844;-3.210;2023-04-05T11:14:36;99326.68;;;10.15;100.00
45872;BME280;32333;55.844;-3.210;2023-04-05T11:17:04;99331.24;;;9.23;100.00
45872;BME280;32333;55.844;-3.210;2023-04-05T11:19:50;99325.23;;;10.57;100.00
45872;BME280;32333;55.844;-3.210;2023-04-05T11:22:27;99327.03;;;10.88;100.00
45872;BME280;32333;55.844;-3.210;2023-04-05T11:24:56;99322.32;;;10.70;100.00
45872;BME280;32333;55.844;-3.210;2023-04-05T11:27:25;99317.48;;;11.05;100.00
45872;BME280;32333;55.844;-3.210;2023-04-05T11:29:53;99318.05;;;11.48;100.00
45872;BME280;32333;55.844;-3.210;2023-04-05T11:32:21;99315.07;;;11.03;100.00
45872;BME280;32333;55.844;-3.210;2023-04-05T11:34:58;99312.70;;;11.03;100.00
45872;BME280;32333;55.844;-3.210;2023-04-05T11:38:06;99317.65;;;11.94;100.00
45872;BME280;32333;55.844;-3.210;2023-04-05T11:40:35;99319.29;;;10.59;100.00
45872;BME280;32333;55.844;-3.210;2023-04-05T11:44:44;99314.51;;;10.48;100.00
45872;BME280;32333;55.844;-3.210;2023-04-05T11:47:15;99316.05;;;10.42;100.00
45872;BME280;32333;55.844;-3.210;2023-04-05T11:49:48;99312.12;;;10.65;100.00
45872;BME280;32333;55.844;-3.210;2023-04-05T11:52:19;99309.69;;;11.24;100.00
45872;BME280;32333;55.844;-3.210;2023-04-05T11:54:48;99311.55;;;9.01;100.00
45872;BME280;32333;55.844;-3.210;2023-04-05T11:57:19;99309.25;;;9.59;100.00
45872;BME280;32333;55.844;-3.210;2023-04-05T11:59:49;99303.26;;;9.76;100.00
45872;BME280;32333;55.844;-3.210;2023-04-05T12:02:17;99307.49;;;10.00;100.00
45872;BME280;32333;55.844;-3.210;2023-04-05T12:04:52;99301.92;;;10.32;100.00
45872;BME280;32333;55.844;-3.210;2023-04-05T12:07:20;99294.18;;;10.36;100.00
45872;BME280;32333;55.844;-3.210;2023-04-05T12:10:00;99293.21;;;10.67;100.00
45872;BME280;32333;55.844;-3.210;2023-04-05T12:14:38;99281.58;;;11.07;100.00
45872;BME280;32333;55.844;-3.210;2023-04-05T12:17:05;99285.28;;;11.26;100.00
45872;BME280;32333;55.844;-3.210;2023-04-05T12:19:32;99285.42;;;11.00;100.00
45872;BME280;32333;55.844;-3.210;2023-04-05T12:21:59;99284.78;;;11.45;100.00
45872;BME280;32333;55.844;-3.210;2023-04-05T12:24:26;99280.60;;;12.20;100.00
45872;BME280;32333;55.844;-3.210;2023-04-05T12:26:54;99278.48;;;12.23;100.00
45872;BME280;32333;55.844;-3.210;2023-04-05T12:29:25;99277.66;;;12.59;100.00
45872;BME280;32333;55.844;-3.210;2023-04-05T12:31:54;99277.84;;;12.45;100.00
45872;BME280;32333;55.844;-3.210;2023-04-05T12:34:24;99277.33;;;12.85;100.00
45872;BME280;32333;55.844;-3.210;2023-04-05T12:36:52;99282.52;;;12.45;100.00
45872;BME280;32333;55.844;-3.210;2023-04-05T12:39:20;99279.84;;;12.25;100.00
45872;BME280;32333;55.844;-3.210;2023-04-05T12:41:56;99279.16;;;11.86;100.00
45872;BME280;32333;55.844;-3.210;2023-04-05T12:44:35;99275.96;;;12.05;100.00
45872;BME280;32333;55.844;-3.210;2023-04-05T12:47:02;99270.93;;;11.49;100.00
45872;BME280;32333;55.844;-3.210;2023-04-05T12:49:35;99270.67;;;11.67;100.00
45872;BME280;32333;55.844;-3.210;2023-04-05T12:52:04;99269.22;;;12.81;100.00
45872;BME280;32333;55.844;-3.210;2023-04-05T12:54:33;99267.14;;;12.35;100.00
45872;BME280;32333;55.844;-3.210;2023-04-05T12:57:01;99273.01;;;13.46;100.00
45872;BME280;32333;55.844;-3.210;2023-04-05T12:59:29;99270.43;;;12.79;100.00
45872;BME280;32333;55.844;-3.210;2023-04-05T13:01:56;99269.37;;;12.91;100.00
45872;BME280;32333;55.844;-3.210;2023-04-05T13:04:25;99270.22;;;12.07;100.00
45872;BME280;32333;55.844;-3.210;2023-04-05T13:06:54;99271.23;;;13.00;100.00
45872;BME280;32333;55.844;-3.210;2023-04-05T13:09:21;99266.28;;;12.13;100.00
45872;BME280;32333;55.844;-3.210;2023-04-05T13:11:49;99268.85;;;11.60;100.00
45872;BME280;32333;55.844;-3.210;2023-04-05T13:14:35;99266.51;;;11.98;100.00
45872;BME280;32333;55.844;-3.210;2023-04-05T13:17:02;99268.31;;;11.59;100.00
45872;BME280;32333;55.844;-3.210;2023-04-05T13:19:29;99264.34;;;11.25;100.00
45872;BME280;32333;55.844;-3.210;2023-04-05T13:21:57;99267.32;;;10.39;100.00